Crescent Valley, Nevada
Current Conditions -  °F | °C
As of 7:56 PM on Thursday 27 Nov 2014 (Local Time) from KEKO Reporting Station
Clear Clear  
Wind Chill: 43°   Ceiling: Unl
Heat Index: 43°   Visibility: 10mi
Dew Point: 31°   Wind: 0mph
Humidity: 62%   Direction: NA
Pressure: 30.14"   Gusts: NA
Location:  40.42°N, 116.58°W
Report Text: KEKO 280356Z AUTO 00000KT 10SM CLR 06/M01 A3014 RMK AO2 SLP211 T00611006
Loading
Personal Weather Stations






























Interactive Weather Map New forecast layout! Learn more

10-Day Weather Forecast

Advertisements
Track Severe Weather on mobile